PWSweather.com
Personal Weather Stations
Station Observations
DOMINIK666
RadlinPL 44-310

RadlinPL 44-310

Lat: 50.045703, Lon: 18.49303

Elevation: 1036

Station Type: Velleman WS 1080

http://pogodaradlin.pl

High Low Average
Temperature 56.1°F13.4°F 49.6°F9.8°F 51.1°F10.6°F
Dew Point 55.9°F13.3°F 49.4°F9.7°F 50.8°F10.4°F
Winds 11.8 mph -19.0 mph - 4.0 mph 6.4 mph 7.3 mph 11.7 mph
Wind Gusts 13.6 mph21.9 mph 5.4 mph8.7 mph 9.5 mph15.3 mph
Humidity 99% 99% 99%
Pressure 29.95 in1014.20 in 29.92 in1013.20 in -
Precipitation 0.00 in0.00 in - -
Hour Temp Dew Point Humidity Winds Wind Gusts Pressure Precip Precip Rate Daily Precip Total
12:00 AM 52.5°F11.4°C 52.3°F11.3°C 99% 8.1 mph SSE13.0 kmh SSE 11.4 mph18.3 kmh 29.93 in1013.5 mb 0.00 in0.0 mm 0.00 in0.0 mm 0.00 in0.0 mm
12:05 AM 52.5°F11.4°C 52.3°F11.3°C 99% 9.0 mph SE14.5 kmh SE 11.4 mph18.3 kmh 29.92 in1013.2 mb 0.00 in0.0 mm 0.00 in0.0 mm 0.00 in0.0 mm
12:10 AM 52.5°F11.4°C 52.3°F11.3°C 99% 8.9 mph SE14.3 kmh SE 12.1 mph19.5 kmh 29.92 in1013.2 mb 0.00 in0.0 mm 0.00 in0.0 mm 0.00 in0.0 mm
12:15 AM 52.3°F11.3°C 52.1°F11.2°C 99% 8.3 mph SSE13.4 kmh SSE 12.1 mph19.5 kmh 29.93 in1013.5 mb 0.00 in0.0 mm 0.00 in0.0 mm 0.00 in0.0 mm
12:20 AM 52.3°F11.3°C 52.1°F11.2°C 99% 8.1 mph S13.0 kmh S 12.1 mph19.5 kmh 29.93 in1013.5 mb 0.00 in0.0 mm 0.00 in0.0 mm 0.00 in0.0 mm
12:25 AM 52.3°F11.3°C 52.1°F11.2°C 99% 7.5 mph S12.1 kmh S 9.8 mph15.8 kmh 29.93 in1013.5 mb 0.00 in0.0 mm 0.00 in0.0 mm 0.00 in0.0 mm
12:30 AM 52.5°F11.4°C 52.3°F11.3°C 99% 7.4 mph SSE11.9 kmh SSE 11.4 mph18.3 kmh 29.93 in1013.5 mb 0.00 in0.0 mm 0.00 in0.0 mm 0.00 in0.0 mm
12:35 AM 52.5°F11.4°C 52.3°F11.3°C 99% 7.5 mph S12.1 kmh S 11.4 mph18.3 kmh 29.93 in1013.5 mb 0.00 in0.0 mm 0.00 in0.0 mm 0.00 in0.0 mm
12:40 AM 52.5°F11.4°C 52.3°F11.3°C 99% 7.1 mph S11.4 kmh S 9.2 mph14.8 kmh 29.93 in1013.5 mb 0.00 in0.0 mm 0.00 in0.0 mm 0.00 in0.0 mm
12:45 AM 52.0°F11.1°C 51.7°F10.9°C 99% 8.3 mph S13.4 kmh S 11.4 mph18.3 kmh 29.93 in1013.5 mb 0.00 in0.0 mm 0.00 in0.0 mm 0.00 in0.0 mm
12:50 AM 52.5°F11.4°C 52.3°F11.3°C 99% 8.7 mph SSE14.0 kmh SSE 13.0 mph20.9 kmh 29.93 in1013.5 mb 0.00 in0.0 mm 0.00 in0.0 mm 0.00 in0.0 mm
12:55 AM 52.3°F11.3°C 52.1°F11.2°C 99% 7.8 mph SE12.6 kmh SE 13.0 mph20.9 kmh 29.93 in1013.5 mb 0.00 in0.0 mm 0.00 in0.0 mm 0.00 in0.0 mm
01:00 AM 52.2°F11.2°C 51.9°F11.1°C 99% 7.2 mph S11.6 kmh S 8.3 mph13.4 kmh 29.93 in1013.5 mb 0.00 in0.0 mm 0.00 in0.0 mm 0.00 in0.0 mm
01:05 AM 52.2°F11.2°C 51.9°F11.1°C 99% 6.5 mph SSE10.5 kmh SSE 7.6 mph12.2 kmh 29.93 in1013.5 mb 0.00 in0.0 mm 0.00 in0.0 mm 0.00 in0.0 mm
01:10 AM 51.8°F11.0°C 51.5°F10.8°C 99% 5.9 mph SE9.5 kmh SE 6.9 mph11.1 kmh 29.92 in1013.2 mb 0.00 in0.0 mm 0.00 in0.0 mm 0.00 in0.0 mm
01:15 AM 51.6°F10.9°C 51.4°F10.8°C 99% 5.8 mph SE9.3 kmh SE 6.9 mph11.1 kmh 29.93 in1013.5 mb 0.00 in0.0 mm 0.00 in0.0 mm 0.00 in0.0 mm
01:20 AM 51.6°F10.9°C 51.4°F10.8°C 99% 6.6 mph SSE10.6 kmh SSE 8.3 mph13.4 kmh 29.92 in1013.2 mb 0.00 in0.0 mm 0.00 in0.0 mm 0.00 in0.0 mm
01:25 AM 51.4°F10.8°C 51.2°F10.7°C 99% 7.3 mph SSE11.7 kmh SSE 8.3 mph13.4 kmh 29.92 in1013.2 mb 0.00 in0.0 mm 0.00 in0.0 mm 0.00 in0.0 mm
01:30 AM 51.4°F10.8°C 51.2°F10.7°C 99% 7.4 mph SSE11.9 kmh SSE 9.2 mph14.8 kmh 29.93 in1013.5 mb 0.00 in0.0 mm 0.00 in0.0 mm 0.00 in0.0 mm
01:35 AM 51.6°F10.9°C 51.4°F10.8°C 99% 8.2 mph S13.2 kmh S 10.7 mph17.2 kmh 29.92 in1013.2 mb 0.00 in0.0 mm 0.00 in0.0 mm 0.00 in0.0 mm
01:40 AM 51.8°F11.0°C 51.5°F10.8°C 99% 9.0 mph S14.5 kmh S 10.7 mph17.2 kmh 29.93 in1013.5 mb 0.00 in0.0 mm 0.00 in0.0 mm 0.00 in0.0 mm
01:45 AM 52.0°F11.1°C 51.7°F10.9°C 99% 9.2 mph S14.8 kmh S 11.4 mph18.3 kmh 29.93 in1013.5 mb 0.00 in0.0 mm 0.00 in0.0 mm 0.00 in0.0 mm
01:50 AM 52.0°F11.1°C 51.7°F10.9°C 99% 9.2 mph S14.8 kmh S 11.4 mph18.3 kmh 29.93 in1013.5 mb 0.00 in0.0 mm 0.00 in0.0 mm 0.00 in0.0 mm
01:55 AM 52.0°F11.1°C 51.7°F10.9°C 99% 9.1 mph S14.6 kmh S 10.7 mph17.2 kmh 29.93 in1013.5 mb 0.00 in0.0 mm 0.00 in0.0 mm 0.00 in0.0 mm
02:00 AM 52.0°F11.1°C 51.7°F10.9°C 99% 9.1 mph S14.6 kmh S 13.6 mph21.9 kmh 29.93 in1013.5 mb 0.00 in0.0 mm 0.00 in0.0 mm 0.00 in0.0 mm
02:05 AM 52.0°F11.1°C 51.7°F10.9°C 99% 10.9 mph SSE17.5 kmh SSE 13.6 mph21.9 kmh 29.93 in1013.5 mb 0.00 in0.0 mm 0.00 in0.0 mm 0.00 in0.0 mm
02:10 AM 51.6°F10.9°C 51.4°F10.8°C 99% 11.8 mph SSE19.0 kmh SSE 13.6 mph21.9 kmh 29.93 in1013.5 mb 0.00 in0.0 mm 0.00 in0.0 mm 0.00 in0.0 mm
02:15 AM 51.4°F10.8°C 51.2°F10.7°C 99% 9.1 mph SSE14.6 kmh SSE 13.6 mph21.9 kmh 29.93 in1013.5 mb 0.00 in0.0 mm 0.00 in0.0 mm 0.00 in0.0 mm
02:20 AM 51.3°F10.7°C 51.0°F10.6°C 99% 7.7 mph SSE12.4 kmh SSE 11.4 mph18.3 kmh 29.93 in1013.5 mb 0.00 in0.0 mm 0.00 in0.0 mm 0.00 in0.0 mm
02:25 AM 51.3°F10.7°C 51.0°F10.6°C 99% 7.6 mph SSE12.2 kmh SSE 8.3 mph13.4 kmh 29.93 in1013.5 mb 0.00 in0.0 mm 0.00 in0.0 mm 0.00 in0.0 mm
02:30 AM 51.1°F10.6°C 50.8°F10.4°C 99% 7.3 mph SSE11.7 kmh SSE 8.3 mph13.4 kmh 29.92 in1013.2 mb 0.00 in0.0 mm 0.00 in0.0 mm 0.00 in0.0 mm
02:35 AM 51.1°F10.6°C 50.8°F10.4°C 99% 6.4 mph SSE10.3 kmh SSE 8.3 mph13.4 kmh 29.92 in1013.2 mb 0.00 in0.0 mm 0.00 in0.0 mm 0.00 in0.0 mm
02:40 AM 50.9°F10.5°C 50.6°F10.3°C 99% 6.5 mph SSE10.5 kmh SSE 9.8 mph15.8 kmh 29.92 in1013.2 mb 0.00 in0.0 mm 0.00 in0.0 mm 0.00 in0.0 mm
02:45 AM 50.9°F10.5°C 50.6°F10.3°C 99% 7.1 mph SE11.4 kmh SE 9.8 mph15.8 kmh 29.92 in1013.2 mb 0.00 in0.0 mm 0.00 in0.0 mm 0.00 in0.0 mm
02:50 AM 50.9°F10.5°C 50.6°F10.3°C 99% 7.8 mph SSE12.6 kmh SSE 10.7 mph17.2 kmh 29.92 in1013.2 mb 0.00 in0.0 mm 0.00 in0.0 mm 0.00 in0.0 mm
02:55 AM 51.1°F10.6°C 50.8°F10.4°C 99% 8.1 mph SSE13.0 kmh SSE 10.7 mph17.2 kmh 29.92 in1013.2 mb 0.00 in0.0 mm 0.00 in0.0 mm 0.00 in0.0 mm
03:00 AM 50.9°F10.5°C 50.6°F10.3°C 99% 8.2 mph SSE13.2 kmh SSE 9.8 mph15.8 kmh 29.92 in1013.2 mb 0.00 in0.0 mm 0.00 in0.0 mm 0.00 in0.0 mm
03:05 AM 50.9°F10.5°C 50.6°F10.3°C 99% 8.0 mph SE12.9 kmh SE 9.2 mph14.8 kmh 29.92 in1013.2 mb 0.00 in0.0 mm 0.00 in0.0 mm 0.00 in0.0 mm
03:10 AM 50.7°F10.4°C 50.5°F10.3°C 99% 7.8 mph SE12.6 kmh SE 9.8 mph15.8 kmh 29.93 in1013.5 mb 0.00 in0.0 mm 0.00 in0.0 mm 0.00 in0.0 mm
03:15 AM 50.5°F10.3°C 50.3°F10.2°C 99% 8.3 mph SE13.4 kmh SE 9.8 mph15.8 kmh 29.92 in1013.2 mb 0.00 in0.0 mm 0.00 in0.0 mm 0.00 in0.0 mm
03:20 AM 50.2°F10.1°C 49.9°F9.9°C 99% 8.3 mph SSE13.4 kmh SSE 9.8 mph15.8 kmh 29.93 in1013.5 mb 0.00 in0.0 mm 0.00 in0.0 mm 0.00 in0.0 mm
03:25 AM 50.0°F10.0°C 49.7°F9.8°C 99% 8.0 mph SSE12.9 kmh SSE 9.2 mph14.8 kmh 29.92 in1013.2 mb 0.00 in0.0 mm 0.00 in0.0 mm 0.00 in0.0 mm
03:30 AM 50.0°F10.0°C 49.7°F9.8°C 99% 7.1 mph SSE11.4 kmh SSE 9.2 mph14.8 kmh 29.93 in1013.5 mb 0.00 in0.0 mm 0.00 in0.0 mm 0.00 in0.0 mm
03:35 AM 49.8°F9.9°C 49.6°F9.8°C 99% 7.6 mph S12.2 kmh S 9.8 mph15.8 kmh 29.93 in1013.5 mb 0.00 in0.0 mm 0.00 in0.0 mm 0.00 in0.0 mm
03:40 AM 50.0°F10.0°C 49.7°F9.8°C 99% 9.2 mph S14.8 kmh S 10.7 mph17.2 kmh 29.93 in1013.5 mb 0.00 in0.0 mm 0.00 in0.0 mm 0.00 in0.0 mm
03:45 AM 50.0°F10.0°C 49.7°F9.8°C 99% 9.2 mph S14.8 kmh S 10.7 mph17.2 kmh 29.93 in1013.5 mb 0.00 in0.0 mm 0.00 in0.0 mm 0.00 in0.0 mm
03:50 AM 50.0°F10.0°C 49.7°F9.8°C 99% 9.0 mph S14.5 kmh S 13.0 mph20.9 kmh 29.93 in1013.5 mb 0.00 in0.0 mm 0.00 in0.0 mm 0.00 in0.0 mm
03:55 AM 50.2°F10.1°C 49.9°F9.9°C 99% 8.9 mph S14.3 kmh S 13.0 mph20.9 kmh 29.93 in1013.5 mb 0.00 in0.0 mm 0.00 in0.0 mm 0.00 in0.0 mm
04:00 AM 50.0°F10.0°C 49.7°F9.8°C 99% 7.4 mph S11.9 kmh S 12.1 mph19.5 kmh 29.93 in1013.5 mb 0.00 in0.0 mm 0.00 in0.0 mm 0.00 in0.0 mm
04:05 AM 50.0°F10.0°C 49.7°F9.8°C 99% 5.8 mph S9.3 kmh S 8.3 mph13.4 kmh 29.93 in1013.5 mb 0.00 in0.0 mm 0.00 in0.0 mm 0.00 in0.0 mm
04:10 AM 49.8°F9.9°C 49.6°F9.8°C 99% 5.2 mph S8.4 kmh S 6.9 mph11.1 kmh 29.93 in1013.5 mb 0.00 in0.0 mm 0.00 in0.0 mm 0.00 in0.0 mm
04:15 AM 49.6°F9.8°C 49.4°F9.7°C 99% 6.0 mph S9.7 kmh S 8.3 mph13.4 kmh 29.93 in1013.5 mb 0.00 in0.0 mm 0.00 in0.0 mm 0.00 in0.0 mm
04:20 AM 49.8°F9.9°C 49.6°F9.8°C 99% 6.9 mph S11.1 kmh S 9.2 mph14.8 kmh 29.93 in1013.5 mb 0.00 in0.0 mm 0.00 in0.0 mm 0.00 in0.0 mm
04:25 AM 49.8°F9.9°C 49.6°F9.8°C 99% 7.0 mph S11.3 kmh S 9.2 mph14.8 kmh 29.93 in1013.5 mb 0.00 in0.0 mm 0.00 in0.0 mm 0.00 in0.0 mm
04:30 AM 49.8°F9.9°C 49.6°F9.8°C 99% 6.2 mph SSE10.0 kmh SSE 9.2 mph14.8 kmh 29.93 in1013.5 mb 0.00 in0.0 mm 0.00 in0.0 mm 0.00 in0.0 mm
04:35 AM 49.6°F9.8°C 49.4°F9.7°C 99% 4.8 mph SSE7.7 kmh SSE 6.9 mph11.1 kmh 29.93 in1013.5 mb 0.00 in0.0 mm 0.00 in0.0 mm 0.00 in0.0 mm
04:40 AM 49.6°F9.8°C 49.4°F9.7°C 99% 4.0 mph S6.4 kmh S 5.4 mph8.7 kmh 29.94 in1013.9 mb 0.00 in0.0 mm 0.00 in0.0 mm 0.00 in0.0 mm
04:45 AM 49.6°F9.8°C 49.4°F9.7°C 99% 4.9 mph SSE7.9 kmh SSE 7.6 mph12.2 kmh 29.94 in1013.9 mb 0.00 in0.0 mm 0.00 in0.0 mm 0.00 in0.0 mm
04:50 AM 49.6°F9.8°C 49.4°F9.7°C 99% 6.2 mph SSE10.0 kmh SSE 7.6 mph12.2 kmh 29.93 in1013.5 mb 0.00 in0.0 mm 0.00 in0.0 mm 0.00 in0.0 mm
04:55 AM 49.6°F9.8°C 49.4°F9.7°C 99% 6.5 mph SSE10.5 kmh SSE 8.3 mph13.4 kmh 29.94 in1013.9 mb 0.00 in0.0 mm 0.00 in0.0 mm 0.00 in0.0 mm
05:00 AM 49.6°F9.8°C 49.4°F9.7°C 99% 7.0 mph SSE11.3 kmh SSE 8.3 mph13.4 kmh 29.93 in1013.5 mb 0.00 in0.0 mm 0.00 in0.0 mm 0.00 in0.0 mm
05:05 AM 49.6°F9.8°C 49.4°F9.7°C 99% 7.8 mph SE12.6 kmh SE 8.3 mph13.4 kmh 29.93 in1013.5 mb 0.00 in0.0 mm 0.00 in0.0 mm 0.00 in0.0 mm
05:10 AM 49.8°F9.9°C 49.6°F9.8°C 99% 8.2 mph SE13.2 kmh SE 9.2 mph14.8 kmh 29.94 in1013.9 mb 0.00 in0.0 mm 0.00 in0.0 mm 0.00 in0.0 mm
05:15 AM 49.8°F9.9°C 49.6°F9.8°C 99% 8.0 mph SE12.9 kmh SE 9.2 mph14.8 kmh 29.93 in1013.5 mb 0.00 in0.0 mm 0.00 in0.0 mm 0.00 in0.0 mm
05:20 AM 49.8°F9.9°C 49.6°F9.8°C 99% 7.3 mph SE11.7 kmh SE 9.2 mph14.8 kmh 29.94 in1013.9 mb 0.00 in0.0 mm 0.00 in0.0 mm 0.00 in0.0 mm
05:25 AM 49.8°F9.9°C 49.6°F9.8°C 99% 7.2 mph SE11.6 kmh SE 9.8 mph15.8 kmh 29.93 in1013.5 mb 0.00 in0.0 mm 0.00 in0.0 mm 0.00 in0.0 mm
05:30 AM 49.8°F9.9°C 49.6°F9.8°C 99% 7.3 mph SSE11.7 kmh SSE 9.8 mph15.8 kmh 29.93 in1013.5 mb 0.00 in0.0 mm 0.00 in0.0 mm 0.00 in0.0 mm
05:35 AM 49.8°F9.9°C 49.6°F9.8°C 99% 7.3 mph S11.7 kmh S 9.2 mph14.8 kmh 29.93 in1013.5 mb 0.00 in0.0 mm 0.00 in0.0 mm 0.00 in0.0 mm
05:40 AM 49.8°F9.9°C 49.6°F9.8°C 99% 7.5 mph S12.1 kmh S 9.2 mph14.8 kmh 29.93 in1013.5 mb 0.00 in0.0 mm 0.00 in0.0 mm 0.00 in0.0 mm
05:45 AM 49.6°F9.8°C 49.4°F9.7°C 99% 7.6 mph SSE12.2 kmh SSE 9.8 mph15.8 kmh 29.93 in1013.5 mb 0.00 in0.0 mm 0.00 in0.0 mm 0.00 in0.0 mm
05:50 AM 49.6°F9.8°C 49.4°F9.7°C 99% 7.5 mph SE12.1 kmh SE 9.8 mph15.8 kmh 29.93 in1013.5 mb 0.00 in0.0 mm 0.00 in0.0 mm 0.00 in0.0 mm
05:55 AM 49.6°F9.8°C 49.4°F9.7°C 99% 7.1 mph SE11.4 kmh SE 8.3 mph13.4 kmh 29.93 in1013.5 mb 0.00 in0.0 mm 0.00 in0.0 mm 0.00 in0.0 mm
06:00 AM 49.6°F9.8°C 49.4°F9.7°C 99% 6.9 mph SE11.1 kmh SE 8.3 mph13.4 kmh 29.93 in1013.5 mb 0.00 in0.0 mm 0.00 in0.0 mm 0.00 in0.0 mm
06:05 AM 49.6°F9.8°C 49.4°F9.7°C 99% 6.1 mph S9.8 kmh S 7.6 mph12.2 kmh 29.93 in1013.5 mb 0.00 in0.0 mm 0.00 in0.0 mm 0.00 in0.0 mm
06:10 AM 49.6°F9.8°C 49.4°F9.7°C 99% 5.6 mph S9.0 kmh S 6.9 mph11.1 kmh 29.93 in1013.5 mb 0.00 in0.0 mm 0.00 in0.0 mm 0.00 in0.0 mm
06:15 AM 49.6°F9.8°C 49.4°F9.7°C 99% 5.9 mph S9.5 kmh S 8.3 mph13.4 kmh 29.93 in1013.5 mb 0.00 in0.0 mm 0.00 in0.0 mm 0.00 in0.0 mm
06:20 AM 49.8°F9.9°C 49.6°F9.8°C 99% 6.4 mph S10.3 kmh S 10.7 mph17.2 kmh 29.93 in1013.5 mb 0.00 in0.0 mm 0.00 in0.0 mm 0.00 in0.0 mm
06:25 AM 49.8°F9.9°C 49.6°F9.8°C 99% 6.2 mph SSE10.0 kmh SSE 10.7 mph17.2 kmh 29.93 in1013.5 mb 0.00 in0.0 mm 0.00 in0.0 mm 0.00 in0.0 mm
06:30 AM 49.8°F9.9°C 49.6°F9.8°C 99% 5.5 mph SE8.9 kmh SE 9.8 mph15.8 kmh 29.93 in1013.5 mb 0.00 in0.0 mm 0.00 in0.0 mm 0.00 in0.0 mm
06:35 AM 49.8°F9.9°C 49.6°F9.8°C 99% 7.0 mph SE11.3 kmh SE 10.7 mph17.2 kmh 29.93 in1013.5 mb 0.00 in0.0 mm 0.00 in0.0 mm 0.00 in0.0 mm
06:40 AM 49.8°F9.9°C 49.6°F9.8°C 99% 7.6 mph SSE12.2 kmh SSE 10.7 mph17.2 kmh 29.93 in1013.5 mb 0.00 in0.0 mm 0.00 in0.0 mm 0.00 in0.0 mm
06:45 AM 49.8°F9.9°C 49.6°F9.8°C 99% 7.1 mph SSE11.4 kmh SSE 9.8 mph15.8 kmh 29.94 in1013.9 mb 0.00 in0.0 mm 0.00 in0.0 mm 0.00 in0.0 mm
06:50 AM 49.8°F9.9°C 49.6°F9.8°C 99% 7.1 mph SE11.4 kmh SE 9.8 mph15.8 kmh 29.94 in1013.9 mb 0.00 in0.0 mm 0.00 in0.0 mm 0.00 in0.0 mm
06:55 AM 49.8°F9.9°C 49.6°F9.8°C 99% 6.4 mph SSE10.3 kmh SSE 8.3 mph13.4 kmh 29.94 in1013.9 mb 0.00 in0.0 mm 0.00 in0.0 mm 0.00 in0.0 mm
07:00 AM 49.6°F9.8°C 49.4°F9.7°C 99% 6.8 mph SSE10.9 kmh SSE 8.3 mph13.4 kmh 29.93 in1013.5 mb 0.00 in0.0 mm 0.00 in0.0 mm 0.00 in0.0 mm
07:05 AM 49.6°F9.8°C 49.4°F9.7°C 99% 7.4 mph S11.9 kmh S 8.3 mph13.4 kmh 29.94 in1013.9 mb 0.00 in0.0 mm 0.00 in0.0 mm 0.00 in0.0 mm
07:10 AM 49.8°F9.9°C 49.6°F9.8°C 99% 7.4 mph S11.9 kmh S 7.6 mph12.2 kmh 29.94 in1013.9 mb 0.00 in0.0 mm 0.00 in0.0 mm 0.00 in0.0 mm
07:15 AM 50.0°F10.0°C 49.7°F9.8°C 99% 7.0 mph S11.3 kmh S 8.3 mph13.4 kmh 29.94 in1013.9 mb 0.00 in0.0 mm 0.00 in0.0 mm 0.00 in0.0 mm
07:20 AM 50.0°F10.0°C 49.7°F9.8°C 99% 7.1 mph S11.4 kmh S 9.8 mph15.8 kmh 29.93 in1013.5 mb 0.00 in0.0 mm 0.00 in0.0 mm 0.00 in0.0 mm
07:25 AM 50.2°F10.1°C 49.9°F9.9°C 99% 6.5 mph S10.5 kmh S 9.8 mph15.8 kmh 29.94 in1013.9 mb 0.00 in0.0 mm 0.00 in0.0 mm 0.00 in0.0 mm
07:30 AM 50.2°F10.1°C 49.9°F9.9°C 99% 5.5 mph S8.9 kmh S 8.3 mph13.4 kmh 29.94 in1013.9 mb 0.00 in0.0 mm 0.00 in0.0 mm 0.00 in0.0 mm
07:35 AM 50.4°F10.2°C 50.1°F10.1°C 99% 6.0 mph S9.7 kmh S 8.3 mph13.4 kmh 29.94 in1013.9 mb 0.00 in0.0 mm 0.00 in0.0 mm 0.00 in0.0 mm
07:40 AM 50.4°F10.2°C 50.1°F10.1°C 99% 6.5 mph SSE10.5 kmh SSE 9.2 mph14.8 kmh 29.94 in1013.9 mb 0.00 in0.0 mm 0.00 in0.0 mm 0.00 in0.0 mm
07:45 AM 50.5°F10.3°C 50.3°F10.2°C 99% 7.1 mph SSE11.4 kmh SSE 9.8 mph15.8 kmh 29.94 in1013.9 mb 0.00 in0.0 mm 0.00 in0.0 mm 0.00 in0.0 mm
07:50 AM 50.5°F10.3°C 50.3°F10.2°C 99% 7.5 mph S12.1 kmh S 9.8 mph15.8 kmh 29.94 in1013.9 mb 0.00 in0.0 mm 0.00 in0.0 mm 0.00 in0.0 mm
07:55 AM 50.7°F10.4°C 50.5°F10.3°C 99% 7.6 mph S12.2 kmh S 9.8 mph15.8 kmh 29.94 in1013.9 mb 0.00 in0.0 mm 0.00 in0.0 mm 0.00 in0.0 mm
08:00 AM 50.9°F10.5°C 50.6°F10.3°C 99% 7.1 mph S11.4 kmh S 9.8 mph15.8 kmh 29.94 in1013.9 mb 0.00 in0.0 mm 0.00 in0.0 mm 0.00 in0.0 mm
08:05 AM 50.9°F10.5°C 50.6°F10.3°C 99% 6.9 mph S11.1 kmh S 8.3 mph13.4 kmh 29.95 in1014.2 mb 0.00 in0.0 mm 0.00 in0.0 mm 0.00 in0.0 mm
08:10 AM 51.3°F10.7°C 51.0°F10.6°C 99% 7.3 mph S11.7 kmh S 7.6 mph12.2 kmh 29.95 in1014.2 mb 0.00 in0.0 mm 0.00 in0.0 mm 0.00 in0.0 mm
08:15 AM 51.4°F10.8°C 51.2°F10.7°C 99% 7.2 mph SE11.6 kmh SE 10.7 mph17.2 kmh 29.94 in1013.9 mb 0.00 in0.0 mm 0.00 in0.0 mm 0.00 in0.0 mm
08:20 AM 51.4°F10.8°C 51.2°F10.7°C 99% 7.5 mph SE12.1 kmh SE 10.7 mph17.2 kmh 29.94 in1013.9 mb 0.00 in0.0 mm 0.00 in0.0 mm 0.00 in0.0 mm
08:25 AM 51.4°F10.8°C 51.2°F10.7°C 99% 7.8 mph SE12.6 kmh SE 10.7 mph17.2 kmh 29.94 in1013.9 mb 0.00 in0.0 mm 0.00 in0.0 mm 0.00 in0.0 mm
08:30 AM 51.6°F10.9°C 51.4°F10.8°C 99% 7.3 mph SSE11.7 kmh SSE 9.8 mph15.8 kmh 29.94 in1013.9 mb 0.00 in0.0 mm 0.00 in0.0 mm 0.00 in0.0 mm
08:35 AM 51.8°F11.0°C 51.5°F10.8°C 99% 7.5 mph SE12.1 kmh SE 9.8 mph15.8 kmh 29.93 in1013.5 mb 0.00 in0.0 mm 0.00 in0.0 mm 0.00 in0.0 mm
08:40 AM 52.0°F11.1°C 51.7°F10.9°C 99% 7.4 mph SE11.9 kmh SE 9.8 mph15.8 kmh 29.94 in1013.9 mb 0.00 in0.0 mm 0.00 in0.0 mm 0.00 in0.0 mm
08:45 AM 52.2°F11.2°C 51.9°F11.1°C 99% 6.7 mph SSE10.8 kmh SSE 8.3 mph13.4 kmh 29.94 in1013.9 mb 0.00 in0.0 mm 0.00 in0.0 mm 0.00 in0.0 mm
08:50 AM 52.3°F11.3°C 52.1°F11.2°C 99% 6.1 mph SE9.8 kmh SE 8.3 mph13.4 kmh 29.94 in1013.9 mb 0.00 in0.0 mm 0.00 in0.0 mm 0.00 in0.0 mm
08:55 AM 52.7°F11.5°C 52.4°F11.3°C 99% 5.8 mph SSE9.3 kmh SSE 7.6 mph12.2 kmh 29.94 in1013.9 mb 0.00 in0.0 mm 0.00 in0.0 mm 0.00 in0.0 mm
09:00 AM 53.1°F11.7°C 52.8°F11.6°C 99% 6.0 mph SSE9.7 kmh SSE 9.2 mph14.8 kmh 29.94 in1013.9 mb 0.00 in0.0 mm 0.00 in0.0 mm 0.00 in0.0 mm
09:05 AM 53.1°F11.7°C 52.8°F11.6°C 99% 6.9 mph SE11.1 kmh SE 9.2 mph14.8 kmh 29.93 in1013.5 mb 0.00 in0.0 mm 0.00 in0.0 mm 0.00 in0.0 mm
09:10 AM 53.8°F12.1°C 53.5°F11.9°C 99% 7.4 mph SE11.9 kmh SE 7.6 mph12.2 kmh 29.93 in1013.5 mb 0.00 in0.0 mm 0.00 in0.0 mm 0.00 in0.0 mm
09:15 AM 54.3°F12.4°C 54.1°F12.3°C 99% 7.0 mph SE11.3 kmh SE 7.6 mph12.2 kmh 29.93 in1013.5 mb 0.00 in0.0 mm 0.00 in0.0 mm 0.00 in0.0 mm
09:20 AM 54.7°F12.6°C 54.4°F12.4°C 99% 6.0 mph SE9.7 kmh SE 7.6 mph12.2 kmh 29.94 in1013.9 mb 0.00 in0.0 mm 0.00 in0.0 mm 0.00 in0.0 mm
09:25 AM 55.2°F12.9°C 55.0°F12.8°C 99% 5.5 mph SE8.9 kmh SE 6.9 mph11.1 kmh 29.93 in1013.5 mb 0.00 in0.0 mm 0.00 in0.0 mm 0.00 in0.0 mm
09:30 AM 55.6°F13.1°C 55.3°F12.9°C 99% 6.4 mph SE10.3 kmh SE 7.6 mph12.2 kmh 29.93 in1013.5 mb 0.00 in0.0 mm 0.00 in0.0 mm 0.00 in0.0 mm
09:35 AM 55.9°F13.3°C 55.7°F13.2°C 99% 6.5 mph SE10.5 kmh SE 7.6 mph12.2 kmh 29.94 in1013.9 mb 0.00 in0.0 mm 0.00 in0.0 mm 0.00 in0.0 mm
09:40 AM 56.1°F13.4°C 55.9°F13.3°C 99% 5.5 mph SSE8.9 kmh SSE 7.6 mph12.2 kmh 29.94 in1013.9 mb 0.00 in0.0 mm 0.00 in0.0 mm 0.00 in0.0 mm